createdAt,value
2023-05-12T00:02:06.937Z,2.63
2023-05-12T00:05:09.526Z,3.65
2023-05-12T00:08:11.889Z,3.38
2023-05-12T00:11:14.656Z,3.05
2023-05-12T00:14:17.321Z,3.45
2023-05-12T00:17:19.721Z,4.35
2023-05-12T00:20:22.822Z,3.92
2023-05-12T00:23:25.700Z,3.78
2023-05-12T00:26:28.446Z,7.53
2023-05-12T00:29:31.032Z,4.57
2023-05-12T00:32:33.775Z,4.03
2023-05-12T00:35:36.395Z,4.75
2023-05-12T00:38:39.122Z,2.95
2023-05-12T00:41:42.177Z,5.03
2023-05-12T00:44:44.569Z,6.10
2023-05-12T00:47:47.032Z,4.00
2023-05-12T00:50:49.598Z,4.97
2023-05-12T00:53:53.193Z,5.65
2023-05-12T00:56:55.888Z,4.78
2023-05-12T00:59:59.112Z,6.15
2023-05-12T01:03:02.294Z,5.25
2023-05-12T01:06:16.878Z,4.60
2023-05-12T01:09:20.886Z,5.15
2023-05-12T01:12:27.792Z,6.30
2023-05-12T01:15:32.349Z,4.13
2023-05-12T01:18:38.291Z,4.43
2023-05-12T01:21:41.711Z,4.72
2023-05-12T01:24:52.771Z,4.95
2023-05-12T01:27:56.006Z,5.63
2023-05-12T01:30:59.612Z,4.93
2023-05-12T01:34:02.157Z,4.70
2023-05-12T01:37:05.745Z,4.70
2023-05-12T01:40:08.666Z,4.38
2023-05-12T01:43:11.053Z,4.55
2023-05-12T01:46:13.664Z,4.55
2023-05-12T01:49:16.820Z,5.68
2023-05-12T01:52:20.852Z,6.57
2023-05-12T01:55:23.181Z,5.82
2023-05-12T01:58:29.138Z,4.85
2023-05-12T02:01:33.611Z,5.40
2023-05-12T02:04:37.904Z,5.93
2023-05-12T02:07:40.168Z,6.13
2023-05-12T02:10:43.306Z,4.80
2023-05-12T02:13:46.568Z,4.50
2023-05-12T02:16:53.007Z,4.68
2023-05-12T02:19:57.365Z,4.03
2023-05-12T02:23:01.326Z,5.03
2023-05-12T02:26:05.833Z,4.85
2023-05-12T02:29:08.270Z,4.00
2023-05-12T02:32:11.684Z,4.35
2023-05-12T02:35:14.139Z,5.85
2023-05-12T02:38:17.466Z,4.55
2023-05-12T02:41:20.753Z,6.28
2023-05-12T02:44:23.555Z,4.32
2023-05-12T02:47:26.460Z,4.47
2023-05-12T02:50:28.969Z,4.57
2023-05-12T02:53:31.530Z,4.25
2023-05-12T02:56:34.098Z,4.40
2023-05-12T02:59:36.989Z,5.80
2023-05-12T03:02:40.260Z,5.57
2023-05-12T03:05:43.688Z,4.70
2023-05-12T03:08:47.060Z,6.03
2023-05-12T03:11:49.469Z,5.50
2023-05-12T03:14:52.245Z,6.55
2023-05-12T03:17:54.989Z,5.65
2023-05-12T03:20:57.921Z,6.05
2023-05-12T03:24:00.695Z,5.60
2023-05-12T03:27:03.371Z,5.35
2023-05-12T03:30:06.360Z,7.13
2023-05-12T03:33:11.649Z,6.63
2023-05-12T03:36:14.439Z,6.07
2023-05-12T03:39:17.243Z,5.20
2023-05-12T03:42:19.845Z,4.70
2023-05-12T03:45:22.736Z,4.70
2023-05-12T03:48:25.743Z,5.15
2023-05-12T03:51:31.442Z,5.88
2023-05-12T03:54:35.142Z,5.30
2023-05-12T03:57:38.730Z,4.97
2023-05-12T04:00:41.548Z,5.43
2023-05-12T04:03:44.048Z,5.43
2023-05-12T04:06:46.572Z,7.05
2023-05-12T04:09:48.908Z,5.65
2023-05-12T04:12:52.497Z,5.95
2023-05-12T04:15:59.073Z,5.75
2023-05-12T04:19:04.742Z,5.82
2023-05-12T04:22:07.532Z,7.07
2023-05-12T04:25:10.523Z,5.75
2023-05-12T04:28:14.150Z,6.57
2023-05-12T04:31:17.265Z,4.88
2023-05-12T04:34:19.922Z,5.45
2023-05-12T04:37:23.078Z,6.43
2023-05-12T04:40:25.790Z,4.93
2023-05-12T04:46:34.345Z,6.25
2023-05-12T04:49:36.939Z,5.28
2023-05-12T04:52:39.770Z,6.28
2023-05-12T04:55:43.236Z,7.00
2023-05-12T04:58:45.972Z,5.90
2023-05-12T05:01:48.657Z,5.68
2023-05-12T05:04:51.256Z,5.75
2023-05-12T05:07:54.123Z,6.70
2023-05-12T05:10:56.587Z,5.13
2023-05-12T05:13:59.184Z,6.53
2023-05-12T05:17:02.432Z,4.60
2023-05-12T05:20:11.389Z,6.22
2023-05-12T05:23:15.047Z,5.85
2023-05-12T05:26:17.615Z,6.75
2023-05-12T05:29:20.515Z,5.82
2023-05-12T05:32:23.046Z,6.82
2023-05-12T05:35:26.759Z,6.22
2023-05-12T05:38:29.676Z,6.25
2023-05-12T05:41:32.036Z,4.85
2023-05-12T05:44:34.617Z,6.30
2023-05-12T05:47:37.721Z,6.07
2023-05-12T05:50:40.798Z,4.20
2023-05-12T05:53:43.324Z,4.82
2023-05-12T05:56:47.073Z,5.15
2023-05-12T05:59:51.493Z,4.30
2023-05-12T06:02:54.139Z,4.53
2023-05-12T06:05:57.386Z,5.05
2023-05-12T06:09:00.619Z,5.97
2023-05-12T06:12:03.000Z,4.93
2023-05-12T06:15:05.827Z,5.32
2023-05-12T06:18:08.230Z,6.75
2023-05-12T06:21:10.549Z,5.65
2023-05-12T06:24:12.909Z,5.10
2023-05-12T06:27:17.482Z,6.03
2023-05-12T06:30:22.377Z,5.28
2023-05-12T06:33:24.721Z,5.32
2023-05-12T06:36:27.523Z,5.95
2023-05-12T06:39:30.380Z,5.25
2023-05-12T06:42:32.686Z,5.18
2023-05-12T06:45:36.716Z,5.35
2023-05-12T06:48:39.019Z,6.35
2023-05-12T06:51:41.435Z,5.78
2023-05-12T06:54:46.840Z,5.70
2023-05-12T06:57:51.821Z,6.07
2023-05-12T07:00:54.513Z,5.80
2023-05-12T07:03:58.058Z,4.35
2023-05-12T07:07:00.404Z,5.07
2023-05-12T07:10:02.654Z,6.00
2023-05-12T07:13:05.113Z,8.27
2023-05-12T07:16:07.504Z,5.10
2023-05-12T07:19:09.989Z,6.80
2023-05-12T07:22:12.324Z,5.05
2023-05-12T07:25:16.019Z,5.78
2023-05-12T07:28:18.658Z,7.53
2023-05-12T07:31:20.984Z,6.85
2023-05-12T07:34:23.251Z,6.15
2023-05-12T07:37:26.293Z,5.78
2023-05-12T07:40:28.538Z,6.32
2023-05-12T07:43:30.948Z,7.38
2023-05-12T07:46:33.459Z,8.93
2023-05-12T07:49:35.787Z,6.05
2023-05-12T07:52:46.747Z,7.13
2023-05-12T07:55:49.062Z,8.18
2023-05-12T07:58:51.420Z,7.65
2023-05-12T08:01:54.060Z,7.18
2023-05-12T08:04:56.591Z,8.18
2023-05-12T08:07:58.975Z,8.07
2023-05-12T08:11:01.618Z,7.55
2023-05-12T08:14:05.003Z,9.50
2023-05-12T08:17:07.763Z,6.05
2023-05-12T08:20:10.898Z,7.35
2023-05-12T08:23:13.248Z,5.95
2023-05-12T08:26:15.546Z,7.63
2023-05-12T08:29:17.837Z,6.45
2023-05-12T08:32:20.279Z,7.05
2023-05-12T08:35:25.013Z,6.47
2023-05-12T08:38:27.548Z,7.35
2023-05-12T08:41:56.147Z,8.05
2023-05-12T08:45:01.039Z,6.80
2023-05-12T08:48:05.906Z,5.80
2023-05-12T08:51:13.188Z,4.78
2023-05-12T08:54:17.566Z,6.53
2023-05-12T08:57:21.875Z,6.97
2023-05-12T09:00:25.919Z,8.18
2023-05-12T09:03:31.328Z,7.70
2023-05-12T09:06:34.376Z,6.80
2023-05-12T09:09:38.513Z,7.90
2023-05-12T09:12:42.860Z,7.35
2023-05-12T09:15:48.929Z,8.63
2023-05-12T09:18:56.391Z,6.90
2023-05-12T09:22:00.396Z,8.13
2023-05-12T09:25:17.308Z,12.75
2023-05-12T09:28:19.655Z,7.03
2023-05-12T09:31:24.243Z,6.53
2023-05-12T09:34:40.995Z,8.70
2023-05-12T09:37:44.313Z,8.35
2023-05-12T09:40:47.241Z,7.72
2023-05-12T09:43:53.322Z,6.05
2023-05-12T09:46:55.750Z,7.90
2023-05-12T09:49:57.993Z,9.55
2023-05-12T09:53:00.377Z,7.13
2023-05-12T09:56:02.626Z,8.07
2023-05-12T09:59:05.538Z,9.73
2023-05-12T10:02:09.749Z,8.45
2023-05-12T10:05:17.099Z,7.05
2023-05-12T10:08:34.515Z,9.07
2023-05-12T10:11:37.109Z,7.20
2023-05-12T10:14:43.790Z,7.55
2023-05-12T10:17:46.959Z,8.18
2023-05-12T10:20:51.369Z,9.57
2023-05-12T10:23:54.571Z,5.82
2023-05-12T10:26:59.575Z,8.48
2023-05-12T10:30:04.524Z,7.70
2023-05-12T10:33:11.654Z,6.45
2023-05-12T10:36:22.867Z,6.93
2023-05-12T10:39:29.830Z,6.65
2023-05-12T10:42:43.430Z,8.32
2023-05-12T10:45:47.284Z,7.32
2023-05-12T10:49:03.043Z,5.82
2023-05-12T10:52:06.325Z,8.25
2023-05-12T10:55:14.188Z,6.65
2023-05-12T10:58:18.055Z,4.82
2023-05-12T11:01:26.407Z,7.05
2023-05-12T11:04:37.369Z,7.35
2023-05-12T11:07:40.177Z,6.85
2023-05-12T11:10:43.322Z,5.47
2023-05-12T11:13:46.128Z,6.43
2023-05-12T11:16:48.496Z,6.57
2023-05-12T11:19:52.616Z,6.78
2023-05-12T11:22:55.126Z,7.72
2023-05-12T11:25:57.724Z,7.18
2023-05-12T11:29:00.186Z,6.82
2023-05-12T11:32:02.759Z,5.13
2023-05-12T11:35:13.639Z,8.20
2023-05-12T11:38:19.627Z,6.97
2023-05-12T11:41:26.475Z,6.32
2023-05-12T11:44:29.294Z,7.03
2023-05-12T11:47:31.608Z,8.23
2023-05-12T11:50:34.039Z,7.25
2023-05-12T11:53:40.635Z,8.57
2023-05-12T11:56:51.039Z,7.65
2023-05-12T11:59:58.776Z,6.43
2023-05-12T12:03:11.990Z,6.18
2023-05-12T12:06:15.455Z,6.03
2023-05-12T12:09:17.810Z,7.53
2023-05-12T12:12:20.725Z,5.70
2023-05-12T12:15:23.210Z,5.55
2023-05-12T12:18:25.657Z,8.70
2023-05-12T12:21:28.523Z,6.35
2023-05-12T12:24:31.097Z,6.30
2023-05-12T12:27:33.437Z,5.10
2023-05-12T12:30:35.775Z,7.00
2023-05-12T12:33:38.107Z,5.70
2023-05-12T12:36:41.253Z,4.82
2023-05-12T12:39:43.576Z,5.55
2023-05-12T12:42:46.825Z,6.28
2023-05-12T12:45:49.316Z,6.93
2023-05-12T12:48:51.650Z,5.63
2023-05-12T12:51:53.918Z,5.38
2023-05-12T12:54:57.504Z,8.85
2023-05-12T12:57:59.783Z,3.75
2023-05-12T13:01:02.384Z,5.22
2023-05-12T13:04:05.115Z,4.90
2023-05-12T13:07:07.419Z,5.53
2023-05-12T13:10:10.561Z,3.97
2023-05-12T13:13:13.073Z,4.97
2023-05-12T13:16:15.787Z,5.28
2023-05-12T13:19:18.093Z,5.82
2023-05-12T13:22:20.789Z,4.97
2023-05-12T13:25:23.412Z,4.70
2023-05-12T13:28:25.830Z,5.40
2023-05-12T13:31:28.240Z,6.40
2023-05-12T13:34:30.577Z,4.07
2023-05-12T13:37:33.055Z,4.78
2023-05-12T13:40:35.548Z,5.53
2023-05-12T13:43:37.978Z,4.75
2023-05-12T13:46:40.727Z,5.20
2023-05-12T13:49:43.048Z,5.90
2023-05-12T13:52:45.457Z,4.88
2023-05-12T13:55:48.605Z,6.03
2023-05-12T13:58:50.909Z,6.68
2023-05-12T14:01:53.335Z,6.43
2023-05-12T14:04:56.618Z,4.85
2023-05-12T14:07:58.916Z,7.70
2023-05-12T14:11:01.242Z,8.23
2023-05-12T14:14:04.390Z,8.52
2023-05-12T14:17:06.692Z,9.18
2023-05-12T14:20:09.479Z,8.77
2023-05-12T14:23:11.827Z,5.72
2023-05-12T14:26:14.284Z,6.53
2023-05-12T14:29:16.568Z,5.95
2023-05-12T14:32:18.905Z,6.00
2023-05-12T14:35:22.030Z,4.85
2023-05-12T14:38:25.213Z,4.90
2023-05-12T14:41:27.635Z,5.40
2023-05-12T14:44:30.095Z,5.38
2023-05-12T14:47:32.529Z,6.53
2023-05-12T14:50:34.918Z,6.53
2023-05-12T14:53:37.341Z,6.05
2023-05-12T14:56:41.800Z,5.90
2023-05-12T14:59:44.404Z,8.80
2023-05-12T15:02:46.976Z,6.30
2023-05-12T15:06:05.050Z,7.95
2023-05-12T15:09:09.452Z,5.75
2023-05-12T15:12:11.856Z,5.82
2023-05-12T15:15:14.207Z,5.25
2023-05-12T15:18:16.677Z,5.63
2023-05-12T15:21:19.013Z,5.90
2023-05-12T15:24:21.785Z,5.72
2023-05-12T15:27:24.671Z,5.63
2023-05-12T15:30:27.235Z,5.90
2023-05-12T15:33:31.585Z,6.88
2023-05-12T15:36:34.563Z,6.32
2023-05-12T15:39:37.087Z,7.35
2023-05-12T15:42:40.029Z,8.45
2023-05-12T15:45:42.305Z,8.82
2023-05-12T15:48:44.585Z,8.10
2023-05-12T15:51:47.118Z,6.60
2023-05-12T15:54:49.606Z,8.98
2023-05-12T15:57:53.739Z,7.07
2023-05-12T16:00:56.532Z,7.57
2023-05-12T16:03:59.480Z,8.00
2023-05-12T16:07:01.983Z,8.55
2023-05-12T16:10:05.313Z,7.18
2023-05-12T16:13:07.754Z,10.25
2023-05-12T16:16:10.342Z,8.00
2023-05-12T16:19:12.889Z,7.35
2023-05-12T16:22:15.327Z,8.52
2023-05-12T16:25:18.759Z,6.82
2023-05-12T16:28:21.382Z,6.63
2023-05-12T16:31:23.739Z,8.18
2023-05-12T16:34:26.044Z,6.65
2023-05-12T16:37:28.448Z,7.47
2023-05-12T16:40:30.867Z,6.07
2023-05-12T16:43:33.498Z,7.82
2023-05-12T16:46:36.150Z,6.07
2023-05-12T16:49:38.706Z,7.00
2023-05-12T16:52:41.287Z,6.25
2023-05-12T16:55:43.906Z,6.43
2023-05-12T16:58:46.584Z,5.53
2023-05-12T17:01:48.897Z,5.80
2023-05-12T17:04:51.430Z,5.07
2023-05-12T17:07:53.811Z,7.00
2023-05-12T17:10:56.283Z,5.70
2023-05-12T17:13:58.588Z,5.95
2023-05-12T17:17:01.265Z,5.72
2023-05-12T17:20:04.166Z,7.45
2023-05-12T17:23:06.954Z,8.27
2023-05-12T17:26:09.433Z,7.65
2023-05-12T17:29:12.373Z,8.20
2023-05-12T17:32:14.764Z,8.07
2023-05-12T17:35:17.465Z,10.20
2023-05-12T17:38:20.822Z,9.15
2023-05-12T17:41:23.704Z,7.75
2023-05-12T17:44:26.049Z,9.77
2023-05-12T17:47:28.488Z,7.43
2023-05-12T17:50:30.843Z,8.95
2023-05-12T17:53:33.475Z,7.30
2023-05-12T17:56:35.874Z,7.70
2023-05-12T17:59:38.169Z,9.07
2023-05-12T18:02:41.480Z,7.25
2023-05-12T18:05:44.366Z,8.38
2023-05-12T18:08:46.761Z,10.32
2023-05-12T18:11:50.328Z,7.05
2023-05-12T18:14:53.444Z,9.82
2023-05-12T18:17:57.886Z,9.05
2023-05-12T18:21:01.185Z,7.75
2023-05-12T18:24:03.724Z,7.95
2023-05-12T18:27:06.568Z,9.60
2023-05-12T18:30:09.601Z,8.55
2023-05-12T18:33:12.182Z,6.65
2023-05-12T18:36:15.427Z,7.85
2023-05-12T18:39:18.374Z,7.07
2023-05-12T18:42:20.784Z,7.30
2023-05-12T18:45:23.453Z,6.78
2023-05-12T18:48:25.837Z,6.57
2023-05-12T18:51:28.312Z,7.60
2023-05-12T18:54:30.558Z,9.13
2023-05-12T18:57:33.012Z,9.02
2023-05-12T19:00:35.822Z,8.98
2023-05-12T19:03:38.376Z,7.60
2023-05-12T19:06:43.222Z,8.05
2023-05-12T19:09:48.835Z,9.68
2023-05-12T19:12:51.585Z,8.18
2023-05-12T19:15:53.908Z,8.05
2023-05-12T19:18:56.301Z,10.52
2023-05-12T19:21:58.643Z,8.40
2023-05-12T19:25:02.127Z,8.93
2023-05-12T19:28:04.814Z,7.75
2023-05-12T19:31:07.252Z,8.48
2023-05-12T19:34:09.568Z,8.48
2023-05-12T19:37:11.950Z,8.27
2023-05-12T19:40:14.822Z,8.73
2023-05-12T19:43:17.115Z,8.40
2023-05-12T19:46:19.652Z,9.50
2023-05-12T19:49:22.193Z,11.43
2023-05-12T19:52:25.000Z,10.00
2023-05-12T19:55:27.280Z,10.60
2023-05-12T19:58:29.815Z,10.27
2023-05-12T20:01:32.165Z,9.27
2023-05-12T20:04:34.625Z,10.20
2023-05-12T20:07:36.976Z,9.48
2023-05-12T20:10:39.289Z,11.18
2023-05-12T20:13:41.576Z,11.88
2023-05-12T20:16:44.096Z,9.95
2023-05-12T20:19:46.700Z,13.18
2023-05-12T20:22:49.059Z,11.23
2023-05-12T20:25:52.888Z,11.57
2023-05-12T20:28:55.408Z,11.80
2023-05-12T20:31:57.820Z,11.88
2023-05-12T20:35:00.325Z,13.80
2023-05-12T20:38:03.056Z,13.55
2023-05-12T20:41:06.333Z,13.82
2023-05-12T20:44:09.147Z,11.38
2023-05-12T20:47:13.016Z,12.27
2023-05-12T20:50:15.827Z,13.15
2023-05-12T20:53:18.345Z,12.07
2023-05-12T20:56:23.993Z,12.50
2023-05-12T20:59:26.708Z,15.27
2023-05-12T21:02:29.571Z,14.50
2023-05-12T21:05:32.450Z,14.25
2023-05-12T21:08:34.952Z,12.50
2023-05-12T21:11:37.265Z,12.95
2023-05-12T21:14:41.319Z,14.38
2023-05-12T21:17:43.640Z,12.77
2023-05-12T21:20:47.324Z,11.52
2023-05-12T21:23:49.627Z,10.35
2023-05-12T21:26:52.238Z,13.68
2023-05-12T21:29:54.743Z,14.00
2023-05-12T21:32:57.157Z,12.35
2023-05-12T21:35:59.762Z,11.65
2023-05-12T21:39:02.255Z,11.25
2023-05-12T21:42:04.813Z,12.35
2023-05-12T21:45:07.617Z,11.35
2023-05-12T21:48:09.952Z,13.88
2023-05-12T21:51:12.659Z,11.35
2023-05-12T21:54:15.354Z,13.02
2023-05-12T21:57:17.741Z,12.23
2023-05-12T22:00:20.544Z,11.52
2023-05-12T22:03:25.141Z,10.88
2023-05-12T22:06:27.583Z,11.52
2023-05-12T22:09:31.307Z,11.45
2023-05-12T22:12:33.718Z,11.68
2023-05-12T22:15:36.033Z,11.63
2023-05-12T22:18:38.564Z,9.27
2023-05-12T22:21:41.034Z,11.48
2023-05-12T22:24:43.852Z,12.15
2023-05-12T22:27:46.255Z,12.55
2023-05-12T22:30:48.705Z,13.30
2023-05-12T22:33:51.086Z,12.30
2023-05-12T22:36:53.623Z,10.88
2023-05-12T22:39:56.154Z,13.70
2023-05-12T22:42:58.420Z,15.20
2023-05-12T22:46:00.665Z,13.65
2023-05-12T22:49:03.277Z,13.88
2023-05-12T22:52:06.079Z,15.02
2023-05-12T22:55:08.885Z,14.57
2023-05-12T22:58:11.939Z,12.93
2023-05-12T23:01:14.239Z,12.20
2023-05-12T23:04:16.667Z,14.88
2023-05-12T23:07:18.926Z,12.02
2023-05-12T23:10:21.455Z,11.90
2023-05-12T23:13:23.892Z,12.85
2023-05-12T23:16:26.757Z,10.68
2023-05-12T23:19:29.086Z,12.00
2023-05-12T23:22:31.409Z,12.00
2023-05-12T23:25:35.195Z,11.35
2023-05-12T23:28:37.536Z,11.02
2023-05-12T23:31:39.843Z,10.68
2023-05-12T23:34:42.866Z,12.10
2023-05-12T23:37:45.143Z,11.65
2023-05-12T23:40:47.603Z,12.18
2023-05-12T23:43:49.939Z,10.88
2023-05-12T23:46:52.265Z,11.77
2023-05-12T23:49:54.672Z,10.55
2023-05-12T23:52:56.907Z,12.68
2023-05-12T23:55:59.145Z,11.10
2023-05-12T23:59:01.507Z,10.40
